Time;durP1;ratioP1;P1;durP2;ratioP2;P2;SDS_P1;SDS_P2;PMS_P1;PMS_P2;Temp;Humidity;BMP_temperature;BMP_pressure;BME280_temperature;BME280_humidity;BME280_pressure;Samples;Min_cycle;Max_cycle;Signal;HPM_P1;HPM_P2
2023/03/04 00:04:26;;;;;;;77.80;28.70;;;;;;;-0.56;96.36;99120.90;272616;1271;22344;-91
2023/03/04 00:10:28;;;;;;;94.70;31.00;;;;;;;-0.57;96.48;99125.13;269268;1273;25334;-91
2023/03/04 00:16:30;;;;;;;77.20;27.30;;;;;;;-0.59;96.60;99120.43;269759;1271;22524;-89
2023/03/04 00:22:35;;;;;;;79.50;27.50;;;;;;;-0.57;96.94;99110.29;269649;1271;23366;-91
2023/03/04 00:28:40;;;;;;;74.40;26.80;;;;;;;-0.55;97.07;99098.96;270899;1274;22451;-88
2023/03/04 00:34:45;;;;;;;71.00;26.50;;;;;;;-0.56;96.92;99090.48;272425;1271;22430;-90
2023/03/04 00:40:55;;;;;;;65.10;24.00;;;;;;;-0.53;96.90;99079.71;272915;1271;22384;-89
2023/03/04 00:46:57;;;;;;;68.60;25.30;;;;;;;-0.53;96.92;99067.05;270418;1264;22607;-88
2023/03/04 00:52:59;;;;;;;72.10;26.50;;;;;;;-0.52;97.08;99055.48;272372;1274;22904;-90
2023/03/04 00:59:00;;;;;;;75.40;26.90;;;;;;;-0.49;97.22;99052.83;271499;1271;25419;-89
2023/03/04 01:05:05;;;;;;;69.10;26.00;;;;;;;-0.46;97.15;99049.38;271836;1261;23716;-90
2023/03/04 01:11:08;;;;;;;76.80;27.70;;;;;;;-0.43;97.24;99031.48;272819;1271;22207;-90
2023/03/04 01:17:11;;;;;;;77.00;27.00;;;;;;;-0.41;97.17;99009.84;273017;1272;22983;-89
2023/03/04 01:23:13;;;;;;;68.50;23.90;;;;;;;-0.42;97.11;98993.04;272739;1271;22241;-91
2023/03/04 01:29:15;;;;;;;63.30;23.30;;;;;;;-0.40;97.14;98988.15;271755;1272;22566;-91
2023/03/04 01:35:17;;;;;;;69.60;23.50;;;;;;;-0.38;97.35;98975.84;271780;1273;22314;-91
2023/03/04 01:41:24;;;;;;;60.30;22.60;;;;;;;-0.38;97.30;98966.15;271365;1271;23122;-90
2023/03/04 01:47:29;;;;;;;;;;;;;;;-0.35;97.41;98961.14;270163;1272;24317;-90
2023/03/04 01:53:32;;;;;;;65.40;22.60;;;;;;;-0.33;97.37;98953.49;270445;1273;23346;-91
2023/03/04 01:59:35;;;;;;;61.90;22.20;;;;;;;-0.32;97.37;98953.27;270834;1267;22576;-91
2023/03/04 02:05:49;;;;;;;54.90;20.40;;;;;;;-0.31;97.56;98946.42;269739;1274;22559;-90
2023/03/04 02:11:58;;;;;;;53.20;20.50;;;;;;;-0.29;97.55;98939.52;271640;1272;22630;-89
2023/03/04 02:18:19;;;;;;;56.20;21.80;;;;;;;-0.28;97.47;98932.67;270216;1271;22478;-92
2023/03/04 02:24:30;;;;;;;51.20;21.10;;;;;;;-0.26;97.49;98927.46;269193;1272;25391;-90
2023/03/04 02:30:42;;;;;;;49.80;19.00;;;;;;;-0.26;97.47;98926.59;272906;1273;22204;-90
2023/03/04 02:36:47;;;;;;;55.50;20.00;;;;;;;-0.26;97.32;98926.33;271957;1272;23091;-90
2023/03/04 02:42:50;;;;;;;52.00;19.60;;;;;;;-0.25;97.38;98921.63;272275;1274;22413;-91
2023/03/04 02:48:55;;;;;;;56.20;19.80;;;;;;;-0.25;97.16;98914.04;271408;1268;22336;-90
2023/03/04 02:54:57;;;;;;;47.80;19.20;;;;;;;-0.24;97.22;98905.79;269043;1274;24371;-90
2023/03/04 03:01:00;;;;;;;63.50;22.00;;;;;;;-0.23;97.27;98890.59;269838;1271;23471;-89
2023/03/04 03:07:03;;;;;;;42.80;17.30;;;;;;;-0.23;97.19;98884.20;269528;1273;22658;-89
2023/03/04 03:13:05;;;;;;;58.10;21.90;;;;;;;-0.22;97.22;98874.49;270007;1271;22555;-88
2023/03/04 03:19:08;;;;;;;49.90;18.90;;;;;;;-0.24;97.20;98867.92;269565;1273;22892;-89
2023/03/04 03:25:12;;;;;;;51.00;18.50;;;;;;;-0.25;97.29;98860.90;269275;1271;23236;-89
2023/03/04 03:31:14;;;;;;;60.60;20.70;;;;;;;-0.25;97.35;98851.05;269798;1274;22539;-90
2023/03/04 03:37:16;;;;;;;45.50;18.60;;;;;;;-0.29;97.26;98846.89;271335;1271;22536;-90
2023/03/04 03:43:23;;;;;;;47.00;18.30;;;;;;;-0.39;97.12;98841.34;269568;1271;24639;-90
2023/03/04 03:49:25;;;;;;;45.50;17.80;;;;;;;-0.53;97.15;98846.02;271818;1273;22611;-91
2023/03/04 03:55:27;;;;;;;41.10;16.70;;;;;;;-0.62;97.53;98851.53;271204;1272;23473;-91
2023/03/04 04:01:29;;;;;;;41.20;17.30;;;;;;;-0.65;97.83;98861.66;270738;1271;22595;-89
2023/03/04 04:07:30;;;;;;;44.10;18.30;;;;;;;-0.70;97.83;98862.16;271431;1273;25477;-91
2023/03/04 04:13:34;;;;;;;43.60;18.40;;;;;;;-0.76;97.89;98848.58;269632;1274;25442;-91
2023/03/04 04:19:36;;;;;;;51.70;22.10;;;;;;;-0.81;97.91;98843.23;269534;1272;22637;-92
2023/03/04 04:25:38;;;;;;;55.50;20.90;;;;;;;-0.85;98.15;98844.72;269694;1273;23273;-91
2023/03/04 04:31:43;;;;;;;52.20;21.20;;;;;;;-0.88;98.26;98834.00;269948;1268;24020;-92
2023/03/04 04:37:48;;;;;;;55.90;20.40;;;;;;;-0.94;98.29;98833.53;271272;1271;22875;-92
2023/03/04 04:43:51;;;;;;;61.90;23.40;;;;;;;-0.99;98.51;98836.21;269746;1274;22549;-91
2023/03/04 04:50:07;;;;;;;52.00;23.20;;;;;;;-1.04;98.48;98830.33;270969;1271;22624;-92
2023/03/04 04:56:19;;;;;;;60.70;23.10;;;;;;;-1.06;98.59;98827.90;270223;1272;22408;-92
2023/03/04 05:02:24;;;;;;;60.20;24.20;;;;;;;-1.09;98.60;98822.23;269984;1270;22547;-92
2023/03/04 05:08:37;;;;;;;59.20;24.20;;;;;;;-1.10;98.82;98821.05;270057;1272;22574;-91
2023/03/04 05:15:07;;;;;;;61.80;23.70;;;;;;;-1.13;98.64;98813.33;270097;1267;24174;-91
2023/03/04 05:21:12;;;;;;;68.10;25.50;;;;;;;-1.17;98.72;98811.05;270390;1272;22547;-91
2023/03/04 05:27:22;;;;;;;68.40;25.40;;;;;;;-1.21;98.85;98817.06;269621;1274;22492;-92
2023/03/04 05:33:37;;;;;;;;;;;;;;;;;;;;;
2023/03/04 05:39:49;;;;;;;67.60;27.50;;;;;;;-1.22;98.93;98821.91;269328;1273;22542;-91
2023/03/04 05:46:22;;;;;;;70.60;28.10;;;;;;;-1.17;99.55;98826.96;269797;1273;22583;-91
2023/03/04 05:52:57;;;;;;;;;;;;;;;;;;;;;
2023/03/04 05:59:30;;;;;;;84.00;29.40;;;;;;;-1.00;99.72;98817.17;271511;1273;22529;-92
2023/03/04 06:05:32;;;;;;;83.10;31.60;;;;;;;-0.92;99.81;98808.27;270659;1273;22529;-91
2023/03/04 06:11:44;;;;;;;88.90;30.30;;;;;;;-0.85;99.60;98803.08;269554;1273;22604;-91
2023/03/04 06:17:57;;;;;;;89.20;33.30;;;;;;;-0.79;99.76;98806.64;269200;1272;22669;-91
2023/03/04 06:24:15;;;;;;;81.90;29.90;;;;;;;-0.75;99.48;98810.67;269125;1266;22811;-91
2023/03/04 06:30:31;;;;;;;89.30;31.90;;;;;;;-0.78;99.48;98809.30;269863;1271;22402;-90
2023/03/04 06:36:37;;;;;;;84.70;31.80;;;;;;;-0.78;99.44;98813.84;270491;1273;22560;-89
2023/03/04 06:42:46;;;;;;;86.90;32.50;;;;;;;-0.79;99.42;98824.96;270783;1273;26722;-92
2023/03/04 06:48:58;;;;;;;86.00;32.80;;;;;;;-0.85;99.21;98830.84;270685;1273;22655;-91
2023/03/04 06:55:11;;;;;;;86.10;33.40;;;;;;;-0.91;99.13;98835.40;269372;1274;22570;-90
2023/03/04 07:01:36;;;;;;;90.70;33.80;;;;;;;-0.93;99.10;98826.36;269511;1273;22486;-91
2023/03/04 07:08:10;;;;;;;97.50;36.30;;;;;;;-0.92;99.29;98821.66;269663;1261;22322;-91
2023/03/04 07:14:16;;;;;;;91.10;33.90;;;;;;;-0.85;99.46;98824.66;269923;1273;22551;-91
2023/03/04 07:20:28;;;;;;;86.80;34.90;;;;;;;-0.80;99.47;98828.91;269646;1267;22530;-90
2023/03/04 07:26:53;;;;;;;92.80;34.70;;;;;;;-0.73;99.45;98828.77;270315;1273;22549;-91
2023/03/04 07:32:58;;;;;;;87.70;32.70;;;;;;;-0.70;99.21;98828.33;269916;1272;22716;-90
2023/03/04 07:39:10;;;;;;;81.30;32.90;;;;;;;-0.73;98.95;98830.77;270521;1273;22464;-90
2023/03/04 07:52:57;;;;;;;85.00;33.50;;;;;;;-0.76;98.95;98844.63;270770;1273;22548;-89
2023/03/04 07:59:28;;;;;;;;;;;;;;;-0.80;98.88;98847.50;271110;1272;22848;-90
2023/03/04 08:05:47;;;;;;;86.60;31.70;;;;;;;-0.84;98.71;98854.11;271433;1273;22634;-91
2023/03/04 08:12:01;;;;;;;94.10;32.90;;;;;;;-0.83;98.86;98863.10;270055;1264;23043;-90
2023/03/04 08:18:11;;;;;;;102.50;37.10;;;;;;;-0.79;99.13;98866.40;269984;1267;22312;-87
2023/03/04 08:24:16;;;;;;;82.30;29.80;;;;;;;-0.69;99.28;98865.78;270199;1273;22326;-91
2023/03/04 08:30:28;;;;;;;100.90;36.10;;;;;;;-0.61;99.01;98869.36;270521;1272;22437;-92
2023/03/04 08:36:38;;;;;;;85.80;30.70;;;;;;;-0.59;98.79;98871.23;270713;1273;23775;-91
2023/03/04 08:42:43;;;;;;;84.20;30.20;;;;;;;-0.61;98.79;98876.69;269657;1272;24180;-90
2023/03/04 08:48:45;;;;;;;75.20;28.90;;;;;;;-0.58;98.90;98877.57;270227;1272;22581;-91
2023/03/04 08:54:51;;;;;;;89.10;34.80;;;;;;;-0.48;98.71;98876.02;270179;1273;24296;-92
2023/03/04 09:01:00;;;;;;;83.90;31.50;;;;;;;-0.33;99.03;98873.84;270102;1272;22569;-90
2023/03/04 09:07:04;;;;;;;75.90;30.40;;;;;;;-0.14;98.81;98872.86;269533;1273;22605;-89
2023/03/04 09:13:17;;;;;;;;;;;;;;;;;;;;;
2023/03/04 09:19:19;;;;;;;75.80;31.00;;;;;;;0.15;97.96;98881.34;271271;1272;22265;-89
2023/03/04 09:25:27;;;;;;;64.40;26.70;;;;;;;0.16;97.57;98875.42;271912;1273;22222;-89
2023/03/04 09:31:31;;;;;;;65.20;28.00;;;;;;;0.17;97.12;98870.87;271277;1272;22185;-90
2023/03/04 09:37:37;;;;;;;65.10;27.00;;;;;;;0.15;96.77;98876.84;271065;1270;22324;-90
2023/03/04 09:43:50;;;;;;;72.00;29.50;;;;;;;0.13;96.68;98882.56;270893;1272;22324;-89
2023/03/04 09:50:07;;;;;;;75.10;31.90;;;;;;;0.12;96.72;98879.64;271480;1273;23248;-88
2023/03/04 09:56:10;;;;;;;73.30;32.00;;;;;;;0.11;96.50;98867.85;270489;1271;23654;-89
2023/03/04 10:02:30;;;;;;;82.40;33.90;;;;;;;0.09;96.63;98858.92;270350;1272;22969;-91
2023/03/04 10:08:42;;;;;;;88.20;35.10;;;;;;;0.14;96.59;98854.40;270501;1273;22615;-90
2023/03/04 10:14:51;;;;;;;83.40;36.00;;;;;;;0.23;96.70;98850.75;270423;1273;22556;-89
2023/03/04 10:21:31;;;;;;;93.30;39.10;;;;;;;0.34;96.55;98842.23;272240;1273;22302;-89
2023/03/04 10:27:51;;;;;;;78.00;34.00;;;;;;;0.41;96.17;98842.32;272270;1273;22552;-91
2023/03/04 10:33:55;;;;;;;76.90;32.10;;;;;;;0.42;95.81;98846.84;272017;1273;22337;-90
2023/03/04 10:40:00;;;;;;;89.50;36.80;;;;;;;0.43;95.75;98839.63;272671;1272;22493;-91
2023/03/04 10:46:03;;;;;;;74.80;31.30;;;;;;;0.43;95.55;98835.52;271287;1258;1314751;-89
2023/03/04 10:52:27;;;;;;;74.20;31.50;;;;;;;0.42;95.40;98835.08;271725;1273;22556;-90
2023/03/04 10:58:29;;;;;;;68.10;29.70;;;;;;;0.43;95.19;98823.42;270569;1271;23361;-89
2023/03/04 11:04:33;;;;;;;86.30;34.30;;;;;;;0.47;95.24;98821.16;271996;1272;22280;-91
2023/03/04 11:10:39;;;;;;;74.00;32.80;;;;;;;0.56;95.37;98815.13;271855;1269;22349;-91
2023/03/04 11:16:54;;;;;;;76.10;32.20;;;;;;;0.66;95.12;98807.37;271874;1273;24023;-90
2023/03/04 11:23:03;;;;;;;83.70;34.70;;;;;;;0.75;95.09;98808.23;272120;1272;22405;-88
2023/03/04 11:29:27;;;;;;;68.90;31.00;;;;;;;0.84;94.97;98806.36;272770;1271;22344;-90
2023/03/04 11:35:44;;;;;;;71.00;31.80;;;;;;;0.89;94.79;98795.58;272461;1273;22644;-89
2023/03/04 11:41:57;;;;;;;60.80;28.90;;;;;;;0.92;94.42;98787.85;272371;1271;22411;-91
2023/03/04 11:48:11;;;;;;;59.70;27.40;;;;;;;0.96;94.35;98779.64;272739;1271;22359;-89
2023/03/04 11:54:20;;;;;;;61.90;27.00;;;;;;;0.98;94.17;98768.66;271410;1272;22543;-90
2023/03/04 12:00:37;;;;;;;63.80;27.90;;;;;;;1.02;94.18;98760.83;269418;1263;23188;-88
2023/03/04 12:06:47;;;;;;;58.70;26.60;;;;;;;1.11;94.11;98753.73;269975;1266;22751;-90
2023/03/04 12:13:14;;;;;;;58.20;24.90;;;;;;;1.18;93.99;98743.43;270182;1272;22185;-88
2023/03/04 12:19:25;;;;;;;51.90;23.30;;;;;;;1.29;93.68;98740.22;270366;1273;22329;-89
2023/03/04 12:25:33;;;;;;;50.20;21.70;;;;;;;1.36;93.67;98740.04;271354;1273;22533;-90
2023/03/04 12:31:42;;;;;;;45.90;22.00;;;;;;;1.43;93.75;98733.02;270714;1272;23389;-90
2023/03/04 12:38:02;;;;;;;47.90;22.00;;;;;;;1.46;93.34;98733.30;270300;1270;22642;-90
2023/03/04 12:44:18;;;;;;;47.20;21.60;;;;;;;1.47;93.32;98731.89;272364;1271;22386;-90
2023/03/04 12:50:37;;;;;;;39.10;19.20;;;;;;;1.49;93.25;98730.64;273044;1271;22336;-89
2023/03/04 12:56:51;;;;;;;41.90;20.70;;;;;;;1.52;93.08;98733.77;272121;1271;24273;-88
2023/03/04 13:03:10;;;;;;;40.60;19.60;;;;;;;1.52;92.79;98731.17;269902;1270;22673;-89
2023/03/04 13:09:27;;;;;;;38.00;19.40;;;;;;;1.49;92.78;98731.18;270934;1270;22197;-89
2023/03/04 13:15:42;;;;;;;53.10;20.30;;;;;;;1.52;93.02;98713.44;271091;1267;22514;-90
2023/03/04 13:21:47;;;;;;;49.10;21.50;;;;;;;1.62;93.01;98703.61;270998;1272;22348;-91
2023/03/04 13:28:18;;;;;;;45.20;19.80;;;;;;;1.77;92.88;98696.99;269949;1271;22553;-90
2023/03/04 13:34:43;;;;;;;38.80;19.70;;;;;;;1.88;92.51;98694.45;271089;1272;22870;-90
2023/03/04 13:41:08;;;;;;;41.90;19.50;;;;;;;1.95;92.28;98690.04;271128;1272;22650;-92
2023/03/04 13:47:22;;;;;;;35.60;17.60;;;;;;;2.02;92.41;98685.27;271155;1272;22566;-90
2023/03/04 13:53:31;;;;;;;38.10;18.10;;;;;;;2.10;92.04;98680.30;271097;1271;22413;-88
2023/03/04 13:59:44;;;;;;;43.60;20.50;;;;;;;2.15;91.95;98677.41;270964;1273;23226;-91
2023/03/04 14:06:08;;;;;;;35.00;17.60;;;;;;;2.19;91.69;98677.83;272284;1271;23069;-90
2023/03/04 14:12:25;;;;;;;35.00;18.50;;;;;;;2.19;91.45;98668.19;270732;1269;22634;-91
2023/03/04 14:18:28;;;;;;;37.80;17.80;;;;;;;2.18;91.30;98672.21;270436;1265;24075;-88
2023/03/04 14:24:31;;;;;;;36.80;17.30;;;;;;;2.15;91.25;98665.40;271154;1272;22378;-89
2023/03/04 14:30:59;;;;;;;37.00;17.70;;;;;;;2.14;91.21;98661.57;272753;1272;22508;-90
2023/03/04 14:37:19;;;;;;;34.80;17.00;;;;;;;2.13;91.06;98662.02;271927;1271;22525;-90
2023/03/04 14:43:27;;;;;;;34.20;17.50;;;;;;;2.12;90.95;98664.98;271591;1271;22219;-89
2023/03/04 14:49:29;;;;;;;37.60;19.70;;;;;;;2.11;90.89;98664.77;272604;1262;22359;-89
2023/03/04 14:55:34;;;;;;;34.60;17.30;;;;;;;2.09;90.97;98669.55;271502;1271;23788;-91
2023/03/04 15:01:40;;;;;;;37.40;19.40;;;;;;;2.07;90.91;98663.39;271429;1271;22704;-90
2023/03/04 15:07:57;;;;;;;37.70;17.40;;;;;;;2.07;90.75;98657.67;270233;1256;22744;-91
2023/03/04 15:14:57;;;;;;;40.50;18.30;;;;;;;2.05;90.52;98651.52;269893;1271;23615;-91
2023/03/04 15:21:05;;;;;;;38.90;18.20;;;;;;;2.05;90.14;98648.27;271351;1271;23467;-91
2023/03/04 15:27:11;;;;;;;39.90;20.10;;;;;;;2.05;90.23;98646.79;270832;1271;23248;-90
2023/03/04 15:33:16;;;;;;;35.10;17.20;;;;;;;2.04;90.16;98649.46;270693;1271;23424;-91
2023/03/04 15:39:26;;;;;;;38.10;18.40;;;;;;;2.07;89.81;98644.79;269588;1270;22876;-90
2023/03/04 15:45:38;;;;;;;39.30;19.00;;;;;;;2.11;89.56;98642.17;270787;1272;22548;-89
2023/03/04 15:51:59;;;;;;;35.00;16.00;;;;;;;2.15;89.20;98644.19;270735;1271;22340;-90
2023/03/04 15:58:18;;;;;;;35.60;14.70;;;;;;;2.19;88.87;98649.20;271513;1271;22399;-91
2023/03/04 16:04:23;;;;;;;35.20;17.90;;;;;;;2.22;88.75;98646.98;272267;1271;22500;-90
2023/03/04 16:10:48;;;;;;;36.00;17.00;;;;;;;2.24;88.39;98645.84;272314;1271;22373;-91
2023/03/04 16:17:00;;;;;;;35.10;16.30;;;;;;;2.27;87.98;98651.34;271606;1273;22518;-91
2023/03/04 16:23:14;;;;;;;35.50;17.00;;;;;;;2.27;88.01;98634.27;271923;1271;22499;-91
2023/03/04 16:29:29;;;;;;;37.40;16.70;;;;;;;2.24;87.98;98638.75;270557;1270;23647;-92
2023/03/04 16:35:36;;;;;;;29.50;14.60;;;;;;;2.23;87.79;98634.98;271231;1270;22319;-92
2023/03/04 16:41:38;;;;;;;32.70;14.30;;;;;;;2.22;87.60;98635.50;271335;1271;23844;-90
2023/03/04 16:47:56;;;;;;;30.70;14.10;;;;;;;2.24;87.54;98639.58;271448;1271;24318;-91
2023/03/04 16:54:03;;;;;;;26.40;12.50;;;;;;;2.25;87.37;98647.70;271694;1271;22296;-91
2023/03/04 17:00:09;;;;;;;30.70;14.10;;;;;;;2.25;87.31;98644.24;271396;1271;22337;-91
2023/03/04 17:06:27;;;;;;;28.40;13.40;;;;;;;2.26;87.07;98649.38;270983;1271;22351;-91
2023/03/04 17:12:31;;;;;;;29.50;14.20;;;;;;;2.26;86.90;98651.64;270542;1271;22562;-90
2023/03/04 17:18:37;;;;;;;29.30;14.80;;;;;;;2.28;86.66;98659.25;269781;1271;22835;-91
2023/03/04 17:24:40;;;;;;;28.60;13.70;;;;;;;2.30;86.58;98661.27;270889;1271;23564;-90
2023/03/04 17:30:41;;;;;;;30.90;14.40;;;;;;;2.29;86.57;98664.29;271125;1273;23007;-91
2023/03/04 17:36:44;;;;;;;32.70;15.70;;;;;;;2.27;86.53;98661.85;269843;1264;22536;-90
2023/03/04 17:42:56;;;;;;;28.40;13.80;;;;;;;2.26;86.32;98658.19;269178;1269;25324;-90
2023/03/04 17:49:02;;;;;;;37.70;17.50;;;;;;;2.23;86.20;98645.48;269523;1273;22538;-90
2023/03/04 17:55:11;;;;;;;30.50;14.30;;;;;;;2.25;86.05;98636.92;269436;1272;23906;-90
2023/03/04 18:01:18;;;;;;;36.40;16.30;;;;;;;2.25;85.92;98618.03;270825;1273;23331;-89
2023/03/04 18:07:37;;;;;;;36.40;16.40;;;;;;;2.27;85.93;98625.42;271736;1271;23182;-91
2023/03/04 18:13:42;;;;;;;38.00;18.60;;;;;;;2.28;85.85;98630.33;272783;1263;22398;-89
2023/03/04 18:19:58;;;;;;;;;;;;;;;;;;;;;
2023/03/04 18:26:25;;;;;;;29.40;15.10;;;;;;;2.34;85.73;98631.40;270308;1273;22499;-90
2023/03/04 18:32:41;;;;;;;30.60;15.10;;;;;;;2.35;85.71;98629.73;269912;1271;23643;-91
2023/03/04 18:39:19;;;;;;;28.50;14.70;;;;;;;2.34;85.71;98637.40;270955;1271;23639;-92
2023/03/04 18:45:42;;;;;;;26.30;13.90;;;;;;;2.29;86.05;98640.56;271438;1271;22534;-91
2023/03/04 18:51:56;;;;;;;31.60;14.50;;;;;;;2.28;86.14;98636.79;269614;1271;22552;-90
2023/03/04 18:58:13;;;;;;;28.00;14.30;;;;;;;2.28;86.16;98637.13;270330;1273;22552;-89
2023/03/04 19:04:40;;;;;;;;;;;;;;;;;;;;;
2023/03/04 19:10:57;;;;;;;35.90;17.10;;;;;;;2.28;86.34;98621.52;270510;1271;22605;-90
2023/03/04 19:17:35;;;;;;;;;;;;;;;;;;;;;
2023/03/04 19:23:57;;;;;;;33.20;16.50;;;;;;;2.23;86.77;98638.25;271819;1271;22301;-91
2023/03/04 19:30:06;;;;;;;29.00;15.50;;;;;;;2.21;86.93;98643.64;272121;1271;22226;-90
2023/03/04 19:36:35;;;;;;;;;;;;;;;;;;;;;
2023/03/04 19:43:37;;;;;;;;;;;;;;;;;;;;;
2023/03/04 19:50:05;;;;;;;;;;;;;;;;;;;;;
2023/03/04 19:56:21;;;;;;;29.00;15.70;;;;;;;2.23;87.28;98641.46;269694;1273;22551;-90
2023/03/04 20:02:52;;;;;;;;;;;;;;;;;;;;;
2023/03/04 20:09:02;;;;;;;29.90;15.10;;;;;;;2.28;87.43;98649.21;269455;1271;22578;-91
2023/03/04 20:15:09;;;;;;;38.90;18.30;;;;;;;2.29;87.62;98652.95;268689;1271;22593;-89
2023/03/04 20:21:12;;;;;;;32.60;17.50;;;;;;;2.30;87.78;98653.61;269215;1273;23800;-90
2023/03/04 20:27:24;;;;;;;30.70;16.00;;;;;;;2.28;88.13;98656.17;269409;1271;22614;-91
2023/03/04 20:33:31;;;;;;;33.30;16.20;;;;;;;2.27;88.19;98657.66;269113;1270;27223;-91
2023/03/04 20:39:36;;;;;;;34.90;17.00;;;;;;;2.27;88.19;98650.42;269320;1273;22641;-91
2023/03/04 20:45:41;;;;;;;36.30;17.70;;;;;;;2.26;88.33;98641.38;268978;1273;25275;-90
2023/03/04 20:51:43;;;;;;;33.80;16.00;;;;;;;2.24;88.56;98643.14;269773;1268;24191;-90
2023/03/04 20:57:49;;;;;;;36.00;17.80;;;;;;;2.22;88.72;98642.77;269467;1272;22505;-90
2023/03/04 21:03:53;;;;;;;38.90;20.20;;;;;;;2.22;89.00;98640.20;270045;1271;22577;-89
2023/03/04 21:09:55;;;;;;;37.60;19.70;;;;;;;2.24;89.17;98644.00;270023;1268;22625;-91
2023/03/04 21:15:59;;;;;;;39.20;19.40;;;;;;;2.24;89.30;98635.95;269838;1265;22604;-92
2023/03/04 21:22:06;;;;;;;37.10;18.70;;;;;;;2.19;89.70;98633.52;269437;1271;22724;-90
2023/03/04 21:28:09;;;;;;;41.10;20.60;;;;;;;2.17;89.87;98629.97;270062;1272;23004;-91
2023/03/04 21:34:23;;;;;;;41.70;20.50;;;;;;;2.15;89.98;98628.52;269064;1273;22552;-92
2023/03/04 21:40:26;;;;;;;47.00;21.70;;;;;;;2.13;90.17;98630.23;269836;1272;22553;-92
2023/03/04 21:46:34;;;;;;;37.50;18.70;;;;;;;2.12;90.52;98635.20;269903;1272;23535;-90
2023/03/04 21:52:46;;;;;;;40.40;19.30;;;;;;;2.12;90.70;98637.98;270226;1273;22551;-90
2023/03/04 21:58:48;;;;;;;24.30;12.70;;;;;;;2.04;90.05;98661.25;269978;1274;22638;-92
2023/03/04 22:04:54;;;;;;;27.50;12.00;;;;;;;1.74;89.35;98665.54;270457;1274;22282;-91
2023/03/04 22:11:01;;;;;;;32.00;11.00;;;;;;;1.52;89.32;98662.97;270932;1272;23210;-91
2023/03/04 22:17:04;;;;;;;14.20;6.80;;;;;;;1.34;89.32;98655.42;271306;1274;22496;-90
2023/03/04 22:23:09;;;;;;;14.80;6.80;;;;;;;1.24;89.28;98655.55;270846;1273;22228;-90
2023/03/04 22:29:11;;;;;;;14.50;7.80;;;;;;;1.20;89.48;98654.23;271027;1271;22542;-91
2023/03/04 22:35:22;;;;;;;13.20;5.90;;;;;;;1.18;89.72;98653.38;270373;1272;22497;-90
2023/03/04 22:41:27;;;;;;;15.30;7.00;;;;;;;1.14;89.66;98661.73;269679;1266;22528;-91
2023/03/04 22:47:40;;;;;;;11.20;5.60;;;;;;;1.09;89.91;98661.52;269906;1268;175651;-91
2023/03/04 22:53:56;;;;;;;11.50;5.30;;;;;;;1.06;90.15;98663.63;270062;1271;22756;-89
2023/03/04 23:00:01;;;;;;;9.40;4.50;;;;;;;1.03;90.10;98654.02;270337;1272;22566;-90
2023/03/04 23:06:09;;;;;;;10.90;4.90;;;;;;;0.96;90.17;98659.08;270451;1271;22718;-89
2023/03/04 23:12:12;;;;;;;16.00;7.00;;;;;;;0.89;90.53;98665.91;270754;1271;25708;-90
2023/03/04 23:18:48;;;;;;;;;;;;;;;;;;;;;
2023/03/04 23:25:13;;;;;;;17.40;7.40;;;;;;;0.89;90.94;98673.55;271052;1272;25402;-89
2023/03/04 23:31:17;;;;;;;17.90;8.10;;;;;;;0.87;90.93;98675.54;270962;1272;22372;-90
2023/03/04 23:37:21;;;;;;;14.50;6.90;;;;;;;0.85;91.05;98674.98;272109;1272;22542;-90
2023/03/04 23:43:25;;;;;;;16.90;6.80;;;;;;;0.86;91.21;98677.23;271589;1273;22552;-90
2023/03/04 23:49:27;;;;;;;16.40;6.70;;;;;;;0.86;91.22;98683.56;269227;1271;22576;-89
2023/03/04 23:55:33;;;;;;;15.30;6.40;;;;;;;0.86;91.27;98685.47;269828;1264;22439;-90
